Terminal Aerodrome Forecast
Issued by NWS

Home | Current Version | Previous Version | Text Only | Print | Product List | Glossary On
Versions: 1 2 3 4 5 6 7 8 9 10 11 12 13 14 15 16 17 18 19 20 21 22 23 24 25 26 27 28 29 30 31 32 33 34
000
FTUS41 KBOX 252325
TAFBAF
TAF
KBAF 252325Z 2600/2624 33008KT P6SM SCT250
     FM260200 34004KT P6SM FEW200
     FM260900 VRB03KT P6SM BKN100
     FM261800 03007KT P6SM OVC045
     FM262100 03007KT P6SM OVC025
     FM262200 03009KT 3SM -SN OVC015=

USA.gov is the U.S. government's official web portal to all federal, state and local government web resources and services.